createdAt,value
2023-03-30T00:02:44.465Z,12.97
2023-03-30T00:07:47.528Z,12.80
2023-03-30T00:12:50.914Z,12.33
2023-03-30T00:17:55.262Z,13.40
2023-03-30T00:22:58.216Z,14.57
2023-03-30T00:28:00.754Z,13.03
2023-03-30T00:33:04.074Z,12.67
2023-03-30T00:38:06.990Z,13.10
2023-03-30T00:43:11.922Z,12.53
2023-03-30T00:48:27.499Z,12.83
2023-03-30T00:53:37.868Z,15.40
2023-03-30T00:58:42.026Z,13.87
2023-03-30T01:03:48.097Z,14.80
2023-03-30T01:08:52.943Z,14.97
2023-03-30T01:14:01.989Z,14.47
2023-03-30T01:19:46.017Z,14.57
2023-03-30T01:25:26.300Z,14.17
2023-03-30T01:30:46.192Z,15.00
2023-03-30T01:36:15.521Z,14.67
2023-03-30T01:41:39.925Z,15.93
2023-03-30T01:47:08.730Z,14.27
2023-03-30T01:52:20.057Z,13.90
2023-03-30T01:57:31.629Z,14.50
2023-03-30T02:02:34.930Z,14.30
2023-03-30T02:07:41.709Z,13.70
2023-03-30T02:12:46.636Z,14.23
2023-03-30T02:17:49.793Z,13.83
2023-03-30T02:22:52.216Z,13.70
2023-03-30T02:27:54.771Z,14.43
2023-03-30T02:32:57.438Z,13.93
2023-03-30T02:38:30.796Z,14.27
2023-03-30T02:43:51.373Z,14.73
2023-03-30T02:48:53.729Z,16.23
2023-03-30T02:54:05.369Z,14.20
2023-03-30T03:00:09.120Z,14.57
2023-03-30T03:05:14.770Z,15.93
2023-03-30T03:10:27.031Z,15.87
2023-03-30T03:15:30.329Z,15.67
2023-03-30T03:20:42.900Z,15.07
2023-03-30T03:25:45.944Z,14.63
2023-03-30T03:30:51.120Z,15.23
2023-03-30T03:35:59.200Z,15.20
2023-03-30T03:41:02.948Z,16.00
2023-03-30T03:46:06.809Z,17.30
2023-03-30T03:51:09.973Z,24.97
2023-03-30T03:56:12.745Z,19.87
2023-03-30T04:01:15.405Z,16.93
2023-03-30T04:06:17.806Z,16.27
2023-03-30T04:11:20.388Z,16.60
2023-03-30T04:16:41.171Z,16.30
2023-03-30T04:22:13.763Z,18.03
2023-03-30T04:27:35.025Z,21.93
2023-03-30T04:33:04.533Z,25.03
2023-03-30T04:38:30.374Z,30.93
2023-03-30T04:43:46.675Z,28.27
2023-03-30T04:49:07.747Z,27.90
2023-03-30T04:54:33.413Z,29.50
2023-03-30T04:59:36.360Z,31.30
2023-03-30T05:05:04.886Z,24.83
2023-03-30T05:10:42.610Z,23.20
2023-03-30T05:16:22.158Z,26.80
2023-03-30T05:21:41.960Z,20.03
2023-03-30T05:27:05.068Z,20.50
2023-03-30T05:32:25.959Z,27.77
2023-03-30T05:37:43.635Z,24.97
2023-03-30T05:43:04.386Z,21.20
2023-03-30T05:48:21.528Z,21.67
2023-03-30T05:53:50.047Z,23.67
2023-03-30T05:59:21.742Z,20.57
2023-03-30T06:04:50.117Z,19.97
2023-03-30T06:09:54.246Z,21.37
2023-03-30T06:15:03.400Z,21.67
2023-03-30T06:20:16.977Z,23.90
2023-03-30T06:25:23.558Z,32.60
2023-03-30T06:30:27.225Z,26.87
2023-03-30T06:35:33.638Z,22.33
2023-03-30T06:40:39.977Z,20.53
2023-03-30T06:45:43.235Z,31.87
2023-03-30T06:50:49.288Z,19.37
2023-03-30T06:55:58.156Z,30.40
2023-03-30T07:01:16.046Z,38.43
2023-03-30T07:06:37.325Z,26.67
2023-03-30T07:11:39.923Z,21.13
2023-03-30T07:16:42.556Z,26.20
2023-03-30T07:21:45.272Z,26.53
2023-03-30T07:26:51.082Z,22.93
2023-03-30T07:31:55.126Z,24.00
2023-03-30T07:36:58.935Z,19.93
2023-03-30T07:42:05.664Z,20.10
2023-03-30T07:47:09.673Z,22.63
2023-03-30T07:52:14.152Z,21.27
2023-03-30T07:57:26.248Z,20.10
2023-03-30T08:02:28.799Z,18.97
2023-03-30T08:07:34.224Z,18.20
2023-03-30T08:12:44.684Z,17.53
2023-03-30T08:17:47.231Z,17.73
2023-03-30T08:22:49.629Z,19.43
2023-03-30T08:27:51.994Z,18.10
2023-03-30T08:32:54.411Z,19.37
2023-03-30T08:37:57.041Z,17.37
2023-03-30T08:43:10.406Z,15.53
2023-03-30T08:48:23.033Z,18.27
2023-03-30T08:53:28.066Z,14.13
2023-03-30T08:58:36.033Z,15.73
2023-03-30T09:03:43.935Z,12.53
2023-03-30T09:08:48.540Z,13.13
2023-03-30T09:13:51.936Z,14.93
2023-03-30T09:18:57.267Z,12.30
2023-03-30T09:24:10.816Z,13.13
2023-03-30T09:29:22.221Z,12.23
2023-03-30T09:34:47.107Z,14.20
2023-03-30T09:39:50.940Z,13.17
2023-03-30T09:45:14.886Z,15.00
2023-03-30T09:50:23.694Z,14.17
2023-03-30T09:55:32.215Z,11.83
2023-03-30T10:00:34.587Z,13.90
2023-03-30T10:05:38.166Z,11.63
2023-03-30T10:10:41.202Z,10.83
2023-03-30T10:15:46.432Z,13.27
2023-03-30T10:20:54.726Z,11.93
2023-03-30T10:26:03.647Z,11.47
2023-03-30T10:31:16.291Z,11.70
2023-03-30T10:36:19.696Z,14.13
2023-03-30T10:41:24.466Z,12.50
2023-03-30T10:46:27.207Z,11.83
2023-03-30T10:52:00.445Z,12.20
2023-03-30T10:57:17.930Z,12.40
2023-03-30T11:02:26.279Z,13.87
2023-03-30T11:07:35.689Z,13.80
2023-03-30T11:12:46.011Z,14.67
2023-03-30T11:18:13.933Z,13.00
2023-03-30T11:23:38.860Z,14.17
2023-03-30T11:29:13.339Z,14.57
2023-03-30T11:34:34.251Z,14.07
2023-03-30T11:39:41.468Z,15.43
2023-03-30T11:44:44.491Z,18.87
2023-03-30T11:49:55.771Z,31.73
2023-03-30T11:55:33.875Z,15.47
2023-03-30T12:00:51.721Z,14.63
2023-03-30T12:06:17.092Z,16.23
2023-03-30T12:11:39.831Z,14.90
2023-03-30T12:16:46.998Z,15.20
2023-03-30T12:22:00.848Z,18.37
2023-03-30T12:27:06.152Z,18.40
2023-03-30T12:32:20.085Z,16.10
2023-03-30T12:37:34.987Z,15.97
2023-03-30T12:42:54.176Z,18.73
2023-03-30T12:48:10.208Z,18.47
2023-03-30T12:53:21.870Z,18.37
2023-03-30T12:58:34.239Z,18.57
2023-03-30T13:03:49.431Z,47.47
2023-03-30T13:09:16.273Z,20.63
2023-03-30T13:14:30.534Z,14.40
2023-03-30T13:19:32.918Z,19.23
2023-03-30T13:24:55.801Z,15.47
2023-03-30T13:30:06.518Z,16.20
2023-03-30T13:35:26.945Z,20.00
2023-03-30T13:40:43.859Z,16.67
2023-03-30T13:46:24.029Z,22.73
2023-03-30T13:51:30.122Z,25.13
2023-03-30T13:56:36.180Z,31.17
2023-03-30T14:01:40.445Z,12.80
2023-03-30T14:06:46.274Z,9.37
2023-03-30T14:12:04.655Z,10.03
2023-03-30T14:17:21.943Z,12.43
2023-03-30T14:22:27.344Z,11.33
2023-03-30T14:27:36.097Z,9.23
2023-03-30T14:32:38.633Z,15.07
2023-03-30T14:42:45.290Z,16.27
2023-03-30T14:47:49.157Z,44.33
2023-03-30T14:52:52.589Z,29.20
2023-03-30T14:57:57.345Z,11.93
2023-03-30T15:03:01.489Z,12.30
2023-03-30T15:08:04.560Z,16.87
2023-03-30T15:13:07.975Z,16.73
2023-03-30T15:18:18.995Z,12.93
2023-03-30T15:23:21.904Z,11.47
2023-03-30T15:28:24.340Z,13.03
2023-03-30T15:33:41.736Z,12.80
2023-03-30T15:38:48.733Z,12.43
2023-03-30T15:44:08.885Z,10.90
2023-03-30T15:49:15.969Z,17.33
2023-03-30T15:54:37.695Z,22.17
2023-03-30T15:59:52.123Z,25.90
2023-03-30T16:04:55.102Z,15.50
2023-03-30T16:09:57.450Z,15.50
2023-03-30T16:14:59.803Z,16.13
2023-03-30T16:20:04.306Z,17.47
2023-03-30T16:25:09.039Z,17.40
2023-03-30T16:30:14.967Z,15.53
2023-03-30T16:35:17.560Z,21.00
2023-03-30T16:40:42.826Z,37.83
2023-03-30T16:45:45.357Z,102.47
2023-03-30T16:50:52.138Z,65.07
2023-03-30T16:55:54.828Z,33.70
2023-03-30T17:01:03.289Z,31.50
2023-03-30T17:06:06.952Z,27.17
2023-03-30T17:11:10.895Z,30.60
2023-03-30T17:16:14.976Z,22.53
2023-03-30T17:21:17.401Z,26.10
2023-03-30T17:26:21.078Z,35.90
2023-03-30T17:31:23.498Z,25.60
2023-03-30T17:36:27.020Z,23.27
2023-03-30T17:41:29.386Z,33.93
2023-03-30T17:46:32.879Z,34.00
2023-03-30T17:51:35.763Z,34.50
2023-03-30T17:56:38.090Z,63.43
2023-03-30T18:01:40.698Z,15.37
2023-03-30T18:06:43.081Z,14.47
2023-03-30T18:11:45.470Z,8.63
2023-03-30T18:16:50.025Z,7.83
2023-03-30T18:21:52.744Z,5.57
2023-03-30T18:26:55.052Z,4.93
2023-03-30T18:31:57.391Z,4.47
2023-03-30T18:36:59.817Z,12.23
2023-03-30T18:42:02.278Z,19.07
2023-03-30T18:47:04.814Z,21.83
2023-03-30T18:52:07.505Z,18.40
2023-03-30T18:57:10.862Z,12.90
2023-03-30T19:02:13.203Z,40.37
2023-03-30T19:07:15.741Z,35.07
2023-03-30T19:12:18.129Z,18.10
2023-03-30T19:17:20.612Z,18.60
2023-03-30T19:22:23.062Z,15.40
2023-03-30T19:27:25.468Z,9.00
2023-03-30T19:32:29.694Z,11.00
2023-03-30T19:37:32.161Z,11.27
2023-03-30T19:42:35.537Z,11.70
2023-03-30T19:47:38.136Z,9.47
2023-03-30T19:52:40.847Z,9.23
2023-03-30T19:57:43.676Z,8.30
2023-03-30T20:02:49.280Z,12.03
2023-03-30T20:07:51.887Z,10.60
2023-03-30T20:12:54.611Z,11.70
2023-03-30T20:17:59.423Z,12.23
2023-03-30T20:23:02.134Z,11.80
2023-03-30T20:28:04.553Z,14.90
2023-03-30T20:33:08.900Z,10.87
2023-03-30T20:38:11.417Z,10.30
2023-03-30T20:43:15.246Z,9.07
2023-03-30T20:48:27.127Z,9.43
2023-03-30T20:53:30.797Z,8.23
2023-03-30T20:58:33.140Z,11.33
2023-03-30T21:03:35.520Z,9.43
2023-03-30T21:08:37.900Z,9.70
2023-03-30T21:13:40.234Z,10.00
2023-03-30T21:18:42.709Z,9.83
2023-03-30T21:23:45.643Z,9.43
2023-03-30T21:28:48.729Z,9.87
2023-03-30T21:33:51.184Z,10.23
2023-03-30T21:38:53.602Z,10.17
2023-03-30T21:43:56.072Z,11.37
2023-03-30T21:48:58.490Z,9.50
2023-03-30T21:54:01.787Z,10.43
2023-03-30T21:59:04.129Z,9.83
2023-03-30T22:04:06.760Z,9.90
2023-03-30T22:09:09.201Z,9.40
2023-03-30T22:14:11.594Z,13.63
2023-03-30T22:19:14.229Z,11.20
2023-03-30T22:24:18.355Z,9.67
2023-03-30T22:29:23.262Z,11.87
2023-03-30T22:34:25.808Z,13.20
2023-03-30T22:39:28.617Z,25.30
2023-03-30T22:44:31.022Z,40.33
2023-03-30T22:49:33.361Z,26.47
2023-03-30T22:54:36.054Z,12.53
2023-03-30T22:59:38.400Z,10.90
2023-03-30T23:04:40.758Z,11.53
2023-03-30T23:09:47.418Z,10.03
2023-03-30T23:14:50.035Z,10.53
2023-03-30T23:19:58.080Z,12.67
2023-03-30T23:25:00.536Z,10.70
2023-03-30T23:30:06.444Z,9.70
2023-03-30T23:35:09.150Z,10.20
2023-03-30T23:40:12.588Z,8.83
2023-03-30T23:45:15.007Z,9.33
2023-03-30T23:50:17.456Z,9.30
2023-03-30T23:55:19.876Z,9.50
